sensor_id;sensor_type;location;lat;lon;timestamp;pressure;altitude;pressure_sealevel;temperature;humidity
72308;BME280;60257;42.638;23.376;2023-04-22T00:00:11;94299.38;;;8.65;68.63
72308;BME280;60257;42.638;23.376;2023-04-22T00:02:37;94296.84;;;8.60;68.91
72308;BME280;60257;42.638;23.376;2023-04-22T00:05:04;94294.25;;;8.64;68.48
72308;BME280;60257;42.638;23.376;2023-04-22T00:07:30;94295.84;;;8.65;68.34
72308;BME280;60257;42.638;23.376;2023-04-22T00:09:56;94273.66;;;8.42;68.36
72308;BME280;60257;42.638;23.376;2023-04-22T00:12:21;94287.63;;;8.53;68.28
72308;BME280;60257;42.638;23.376;2023-04-22T00:14:46;94268.31;;;8.33;68.18
72308;BME280;60257;42.638;23.376;2023-04-22T00:17:12;94261.38;;;8.36;68.12
72308;BME280;60257;42.638;23.376;2023-04-22T00:19:37;94282.66;;;8.42;68.33
72308;BME280;60257;42.638;23.376;2023-04-22T00:22:03;94289.13;;;8.50;68.13
72308;BME280;60257;42.638;23.376;2023-04-22T00:24:29;94270.00;;;8.38;67.96
72308;BME280;60257;42.638;23.376;2023-04-22T00:26:54;94266.03;;;8.35;67.79
72308;BME280;60257;42.638;23.376;2023-04-22T00:29:20;94279.56;;;8.44;67.78
72308;BME280;60257;42.638;23.376;2023-04-22T00:31:45;94269.91;;;8.34;67.80
72308;BME280;60257;42.638;23.376;2023-04-22T00:34:11;94283.91;;;8.33;68.05
72308;BME280;60257;42.638;23.376;2023-04-22T00:36:36;94262.69;;;8.18;67.91
72308;BME280;60257;42.638;23.376;2023-04-22T00:39:02;94269.75;;;8.19;67.96
72308;BME280;60257;42.638;23.376;2023-04-22T00:41:28;94271.91;;;8.13;68.07
72308;BME280;60257;42.638;23.376;2023-04-22T00:43:56;94284.66;;;8.21;67.96
72308;BME280;60257;42.638;23.376;2023-04-22T00:46:21;94286.47;;;8.17;68.21
72308;BME280;60257;42.638;23.376;2023-04-22T00:48:48;94287.38;;;8.09;68.46
72308;BME280;60257;42.638;23.376;2023-04-22T00:51:13;94283.75;;;8.05;68.64
72308;BME280;60257;42.638;23.376;2023-04-22T00:53:39;94288.41;;;8.04;68.77
72308;BME280;60257;42.638;23.376;2023-04-22T00:56:04;94292.72;;;8.05;68.63
72308;BME280;60257;42.638;23.376;2023-04-22T00:58:30;94278.16;;;7.89;68.95
72308;BME280;60257;42.638;23.376;2023-04-22T01:00:56;94293.03;;;7.92;69.01
72308;BME280;60257;42.638;23.376;2023-04-22T01:03:22;94294.75;;;7.84;69.43
72308;BME280;60257;42.638;23.376;2023-04-22T01:05:48;94294.88;;;7.88;69.46
72308;BME280;60257;42.638;23.376;2023-04-22T01:08:14;94295.31;;;7.78;69.64
72308;BME280;60257;42.638;23.376;2023-04-22T01:10:41;94302.53;;;7.61;70.25
72308;BME280;60257;42.638;23.376;2023-04-22T01:13:07;94310.16;;;7.68;70.38
72308;BME280;60257;42.638;23.376;2023-04-22T01:15:32;94289.22;;;7.60;70.34
72308;BME280;60257;42.638;23.376;2023-04-22T01:17:59;94309.97;;;7.73;70.49
72308;BME280;60257;42.638;23.376;2023-04-22T01:20:27;94298.25;;;7.72;70.50
72308;BME280;60257;42.638;23.376;2023-04-22T01:22:55;94305.50;;;7.68;70.50
72308;BME280;60257;42.638;23.376;2023-04-22T01:25:26;94285.59;;;7.56;70.44
72308;BME280;60257;42.638;23.376;2023-04-22T01:27:52;94306.41;;;7.60;70.30
72308;BME280;60257;42.638;23.376;2023-04-22T01:30:18;94311.06;;;7.60;70.67
72308;BME280;60257;42.638;23.376;2023-04-22T01:32:44;94312.41;;;7.54;70.82
72308;BME280;60257;42.638;23.376;2023-04-22T01:35:10;94282.78;;;7.31;70.82
72308;BME280;60257;42.638;23.376;2023-04-22T01:37:36;94306.03;;;7.50;71.38
72308;BME280;60257;42.638;23.376;2023-04-22T01:40:03;94288.44;;;7.06;72.78
72308;BME280;60257;42.638;23.376;2023-04-22T01:42:29;94289.50;;;7.13;72.55
72308;BME280;60257;42.638;23.376;2023-04-22T01:44:55;94309.97;;;7.40;72.55
72308;BME280;60257;42.638;23.376;2023-04-22T01:47:21;94298.72;;;7.42;72.89
72308;BME280;60257;42.638;23.376;2023-04-22T01:49:46;94297.59;;;7.43;73.25
72308;BME280;60257;42.638;23.376;2023-04-22T01:52:12;94297.84;;;7.50;73.53
72308;BME280;60257;42.638;23.376;2023-04-22T01:54:38;94293.44;;;7.57;73.35
72308;BME280;60257;42.638;23.376;2023-04-22T01:57:09;94291.72;;;7.53;73.53
72308;BME280;60257;42.638;23.376;2023-04-22T01:59:36;94295.63;;;7.64;73.49
72308;BME280;60257;42.638;23.376;2023-04-22T02:02:01;94295.19;;;7.74;72.84
72308;BME280;60257;42.638;23.376;2023-04-22T02:04:46;94307.56;;;7.71;73.01
72308;BME280;60257;42.638;23.376;2023-04-22T02:07:11;94297.56;;;7.76;72.62
72308;BME280;60257;42.638;23.376;2023-04-22T02:09:37;94303.97;;;7.80;72.84
72308;BME280;60257;42.638;23.376;2023-04-22T02:12:02;94306.78;;;7.83;72.12
72308;BME280;60257;42.638;23.376;2023-04-22T02:14:28;94305.66;;;7.84;72.00
72308;BME280;60257;42.638;23.376;2023-04-22T02:16:53;94283.59;;;7.77;71.82
72308;BME280;60257;42.638;23.376;2023-04-22T02:19:19;94291.69;;;7.86;72.52
72308;BME280;60257;42.638;23.376;2023-04-22T02:21:44;94294.19;;;7.91;72.76
72308;BME280;60257;42.638;23.376;2023-04-22T02:24:10;94289.28;;;7.84;72.53
72308;BME280;60257;42.638;23.376;2023-04-22T02:26:35;94289.41;;;7.88;71.96
72308;BME280;60257;42.638;23.376;2023-04-22T02:29:01;94293.97;;;7.96;71.55
72308;BME280;60257;42.638;23.376;2023-04-22T02:31:26;94288.63;;;7.87;71.27
72308;BME280;60257;42.638;23.376;2023-04-22T02:33:52;94298.97;;;7.94;70.75
72308;BME280;60257;42.638;23.376;2023-04-22T02:36:17;94290.88;;;7.85;70.59
72308;BME280;60257;42.638;23.376;2023-04-22T02:38:42;94307.59;;;7.84;70.87
72308;BME280;60257;42.638;23.376;2023-04-22T02:41:08;94302.78;;;7.68;70.92
72308;BME280;60257;42.638;23.376;2023-04-22T02:43:33;94300.53;;;7.83;71.01
72308;BME280;60257;42.638;23.376;2023-04-22T02:45:59;94306.34;;;7.81;70.90
72308;BME280;60257;42.638;23.376;2023-04-22T02:48:24;94290.41;;;7.71;70.76
72308;BME280;60257;42.638;23.376;2023-04-22T02:50:50;94312.34;;;7.74;70.84
72308;BME280;60257;42.638;23.376;2023-04-22T02:53:15;94317.03;;;7.74;70.52
72308;BME280;60257;42.638;23.376;2023-04-22T02:55:41;94317.03;;;7.74;70.93
72308;BME280;60257;42.638;23.376;2023-04-22T02:58:06;94316.31;;;7.65;70.48
72308;BME280;60257;42.638;23.376;2023-04-22T03:00:33;94299.66;;;7.46;71.03
72308;BME280;60257;42.638;23.376;2023-04-22T03:02:59;94315.97;;;7.33;71.63
72308;BME280;60257;42.638;23.376;2023-04-22T03:05:24;94320.81;;;7.28;72.23
72308;BME280;60257;42.638;23.376;2023-04-22T03:07:50;94315.22;;;7.12;72.77
72308;BME280;60257;42.638;23.376;2023-04-22T03:10:15;94318.59;;;7.09;73.04
72308;BME280;60257;42.638;23.376;2023-04-22T03:12:41;94319.44;;;7.01;73.46
72308;BME280;60257;42.638;23.376;2023-04-22T03:15:07;94322.59;;;7.12;73.31
72308;BME280;60257;42.638;23.376;2023-04-22T03:17:32;94315.78;;;7.18;72.71
72308;BME280;60257;42.638;23.376;2023-04-22T03:19:58;94309.47;;;7.26;72.22
72308;BME280;60257;42.638;23.376;2023-04-22T03:22:24;94326.19;;;7.37;72.26
72308;BME280;60257;42.638;23.376;2023-04-22T03:24:49;94329.72;;;7.37;72.16
72308;BME280;60257;42.638;23.376;2023-04-22T03:27:15;94333.88;;;7.43;72.00
72308;BME280;60257;42.638;23.376;2023-04-22T03:29:40;94324.75;;;7.39;71.83
72308;BME280;60257;42.638;23.376;2023-04-22T03:32:06;94334.06;;;7.38;72.32
72308;BME280;60257;42.638;23.376;2023-04-22T03:34:31;94320.50;;;7.29;71.92
72308;BME280;60257;42.638;23.376;2023-04-22T03:36:57;94333.06;;;7.43;71.58
72308;BME280;60257;42.638;23.376;2023-04-22T03:39:22;94343.63;;;7.44;71.37
72308;BME280;60257;42.638;23.376;2023-04-22T03:41:48;94335.50;;;7.35;71.18
72308;BME280;60257;42.638;23.376;2023-04-22T03:44:13;94337.91;;;7.37;71.32
72308;BME280;60257;42.638;23.376;2023-04-22T03:46:39;94330.34;;;7.22;71.36
72308;BME280;60257;42.638;23.376;2023-04-22T03:49:04;94348.25;;;7.31;71.25
72308;BME280;60257;42.638;23.376;2023-04-22T03:51:30;94345.19;;;7.33;71.25
72308;BME280;60257;42.638;23.376;2023-04-22T03:53:55;94340.97;;;7.35;71.05
72308;BME280;60257;42.638;23.376;2023-04-22T03:56:21;94348.72;;;7.33;70.79
72308;BME280;60257;42.638;23.376;2023-04-22T03:58:49;94346.78;;;7.34;70.56
72308;BME280;60257;42.638;23.376;2023-04-22T04:01:14;94344.44;;;7.24;70.73
72308;BME280;60257;42.638;23.376;2023-04-22T04:03:40;94350.63;;;7.33;70.53
72308;BME280;60257;42.638;23.376;2023-04-22T04:06:06;94327.84;;;7.17;70.70
72308;BME280;60257;42.638;23.376;2023-04-22T04:08:31;94352.69;;;7.36;70.31
72308;BME280;60257;42.638;23.376;2023-04-22T04:10:57;94326.56;;;7.14;70.16
72308;BME280;60257;42.638;23.376;2023-04-22T04:13:22;94347.44;;;7.31;70.19
72308;BME280;60257;42.638;23.376;2023-04-22T04:15:48;94356.03;;;7.42;70.04
72308;BME280;60257;42.638;23.376;2023-04-22T04:18:13;94356.13;;;7.45;69.77
72308;BME280;60257;42.638;23.376;2023-04-22T04:20:39;94351.56;;;7.37;69.59
72308;BME280;60257;42.638;23.376;2023-04-22T04:23:04;94355.81;;;7.47;69.79
72308;BME280;60257;42.638;23.376;2023-04-22T04:25:30;94359.72;;;7.58;69.58
72308;BME280;60257;42.638;23.376;2023-04-22T04:28:03;94361.78;;;7.61;69.41
72308;BME280;60257;42.638;23.376;2023-04-22T04:30:29;94344.69;;;7.52;69.86
72308;BME280;60257;42.638;23.376;2023-04-22T04:32:55;94358.72;;;7.62;69.86
72308;BME280;60257;42.638;23.376;2023-04-22T04:35:21;94357.19;;;7.20;70.17
72308;BME280;60257;42.638;23.376;2023-04-22T04:37:48;94373.25;;;7.33;70.34
72308;BME280;60257;42.638;23.376;2023-04-22T04:40:15;94358.31;;;7.52;70.12
72308;BME280;60257;42.638;23.376;2023-04-22T04:42:40;94387.44;;;7.81;68.95
72308;BME280;60257;42.638;23.376;2023-04-22T04:45:07;94389.06;;;7.94;68.81
72308;BME280;60257;42.638;23.376;2023-04-22T04:47:33;94391.03;;;8.05;67.98
72308;BME280;60257;42.638;23.376;2023-04-22T04:50:00;94383.78;;;8.09;67.82
72308;BME280;60257;42.638;23.376;2023-04-22T04:52:26;94389.47;;;8.29;67.52
72308;BME280;60257;42.638;23.376;2023-04-22T04:54:51;94386.75;;;8.17;68.13
72308;BME280;60257;42.638;23.376;2023-04-22T04:57:16;94386.69;;;8.37;68.45
72308;BME280;60257;42.638;23.376;2023-04-22T04:59:42;94374.97;;;8.37;67.98
72308;BME280;60257;42.638;23.376;2023-04-22T05:02:07;94371.13;;;8.50;68.65
72308;BME280;60257;42.638;23.376;2023-04-22T05:04:33;94393.09;;;8.78;67.69
72308;BME280;60257;42.638;23.376;2023-04-22T05:06:58;94389.91;;;8.88;67.05
72308;BME280;60257;42.638;23.376;2023-04-22T05:09:24;94391.81;;;9.00;66.85
72308;BME280;60257;42.638;23.376;2023-04-22T05:11:49;94392.41;;;9.05;67.16
72308;BME280;60257;42.638;23.376;2023-04-22T05:14:15;94399.03;;;9.04;67.40
72308;BME280;60257;42.638;23.376;2023-04-22T05:16:40;94393.34;;;8.97;67.74
72308;BME280;60257;42.638;23.376;2023-04-22T05:19:06;94400.50;;;9.02;67.86
72308;BME280;60257;42.638;23.376;2023-04-22T05:21:31;94380.91;;;8.87;67.60
72308;BME280;60257;42.638;23.376;2023-04-22T05:23:57;94405.28;;;9.05;67.66
72308;BME280;60257;42.638;23.376;2023-04-22T05:26:22;94403.78;;;9.07;67.78
72308;BME280;60257;42.638;23.376;2023-04-22T05:28:48;94403.78;;;9.19;67.70
72308;BME280;60257;42.638;23.376;2023-04-22T05:31:13;94381.34;;;9.02;67.95
72308;BME280;60257;42.638;23.376;2023-04-22T05:33:39;94392.50;;;9.09;68.51
72308;BME280;60257;42.638;23.376;2023-04-22T05:36:04;94403.06;;;9.22;68.34
72308;BME280;60257;42.638;23.376;2023-04-22T05:38:30;94406.94;;;9.34;68.48
72308;BME280;60257;42.638;23.376;2023-04-22T05:40:55;94391.53;;;9.41;67.49
72308;BME280;60257;42.638;23.376;2023-04-22T05:43:21;94408.44;;;9.71;66.84
72308;BME280;60257;42.638;23.376;2023-04-22T05:45:46;94408.44;;;9.71;66.58
72308;BME280;60257;42.638;23.376;2023-04-22T05:48:12;94393.88;;;9.67;67.52
72308;BME280;60257;42.638;23.376;2023-04-22T05:50:37;94402.63;;;9.73;67.58
72308;BME280;60257;42.638;23.376;2023-04-22T05:53:02;94408.84;;;9.85;66.41
72308;BME280;60257;42.638;23.376;2023-04-22T05:55:28;94403.47;;;9.89;66.09
72308;BME280;60257;42.638;23.376;2023-04-22T05:57:53;94402.28;;;10.02;66.54
72308;BME280;60257;42.638;23.376;2023-04-22T06:00:19;94391.28;;;10.14;66.37
72308;BME280;60257;42.638;23.376;2023-04-22T06:02:44;94393.56;;;10.12;65.78
72308;BME280;60257;42.638;23.376;2023-04-22T06:05:10;94392.03;;;10.15;65.16
72308;BME280;60257;42.638;23.376;2023-04-22T06:07:35;94402.66;;;10.16;65.63
72308;BME280;60257;42.638;23.376;2023-04-22T06:10:01;94380.88;;;10.08;65.05
72308;BME280;60257;42.638;23.376;2023-04-22T06:12:27;94384.44;;;10.08;65.08
72308;BME280;60257;42.638;23.376;2023-04-22T06:14:52;94402.72;;;10.04;65.70
72308;BME280;60257;42.638;23.376;2023-04-22T06:17:18;94394.06;;;10.02;65.65
72308;BME280;60257;42.638;23.376;2023-04-22T06:19:43;94389.78;;;9.89;66.10
72308;BME280;60257;42.638;23.376;2023-04-22T06:22:09;94397.13;;;10.00;65.94
72308;BME280;60257;42.638;23.376;2023-04-22T06:24:34;94387.16;;;10.08;66.01
72308;BME280;60257;42.638;23.376;2023-04-22T06:26:59;94405.09;;;10.33;65.35
72308;BME280;60257;42.638;23.376;2023-04-22T06:29:26;94379.81;;;10.40;65.52
72308;BME280;60257;42.638;23.376;2023-04-22T06:31:51;94402.13;;;10.70;64.37
72308;BME280;60257;42.638;23.376;2023-04-22T06:34:18;94407.53;;;10.82;64.03
72308;BME280;60257;42.638;23.376;2023-04-22T06:36:44;94401.41;;;10.89;63.42
72308;BME280;60257;42.638;23.376;2023-04-22T06:39:09;94399.38;;;10.70;62.59
72308;BME280;60257;42.638;23.376;2023-04-22T06:41:35;94410.97;;;10.63;63.36
72308;BME280;60257;42.638;23.376;2023-04-22T06:44:01;94412.66;;;10.84;63.50
72308;BME280;60257;42.638;23.376;2023-04-22T06:46:26;94416.63;;;11.02;62.61
72308;BME280;60257;42.638;23.376;2023-04-22T06:48:52;94411.06;;;11.14;62.66
72308;BME280;60257;42.638;23.376;2023-04-22T06:51:17;94382.84;;;10.98;62.72
72308;BME280;60257;42.638;23.376;2023-04-22T06:53:43;94412.06;;;11.25;62.56
72308;BME280;60257;42.638;23.376;2023-04-22T06:56:08;94409.97;;;11.18;62.74
72308;BME280;60257;42.638;23.376;2023-04-22T06:58:34;94408.38;;;11.17;62.81
72308;BME280;60257;42.638;23.376;2023-04-22T07:01:00;94403.81;;;10.90;63.51
72308;BME280;60257;42.638;23.376;2023-04-22T07:03:25;94415.31;;;10.80;63.92
72308;BME280;60257;42.638;23.376;2023-04-22T07:05:51;94403.88;;;10.78;64.23
72308;BME280;60257;42.638;23.376;2023-04-22T07:08:17;94405.66;;;10.86;63.46
72308;BME280;60257;42.638;23.376;2023-04-22T07:10:43;94416.63;;;10.86;63.61
72308;BME280;60257;42.638;23.376;2023-04-22T07:13:09;94409.03;;;10.95;63.57
72308;BME280;60257;42.638;23.376;2023-04-22T07:15:34;94398.72;;;11.08;63.15
72308;BME280;60257;42.638;23.376;2023-04-22T07:18:00;94402.34;;;11.28;62.90
72308;BME280;60257;42.638;23.376;2023-04-22T07:20:25;94411.84;;;11.49;62.25
72308;BME280;60257;42.638;23.376;2023-04-22T07:22:51;94418.09;;;11.66;62.36
72308;BME280;60257;42.638;23.376;2023-04-22T07:25:16;94415.22;;;11.78;61.65
72308;BME280;60257;42.638;23.376;2023-04-22T07:27:42;94403.53;;;11.81;61.88
72308;BME280;60257;42.638;23.376;2023-04-22T07:30:09;94406.78;;;12.06;61.70
72308;BME280;60257;42.638;23.376;2023-04-22T07:32:35;94414.28;;;12.28;60.60
72308;BME280;60257;42.638;23.376;2023-04-22T07:35:01;94409.59;;;12.28;59.76
72308;BME280;60257;42.638;23.376;2023-04-22T07:37:26;94415.16;;;12.32;59.36
72308;BME280;60257;42.638;23.376;2023-04-22T07:39:52;94420.63;;;12.32;59.54
72308;BME280;60257;42.638;23.376;2023-04-22T07:42:18;94415.09;;;12.09;59.75
72308;BME280;60257;42.638;23.376;2023-04-22T07:44:43;94420.00;;;12.19;59.61
72308;BME280;60257;42.638;23.376;2023-04-22T07:47:08;94411.84;;;12.23;59.19
72308;BME280;60257;42.638;23.376;2023-04-22T07:49:34;94419.53;;;12.14;59.21
72308;BME280;60257;42.638;23.376;2023-04-22T07:52:00;94415.22;;;12.36;58.19
72308;BME280;60257;42.638;23.376;2023-04-22T07:54:25;94405.13;;;12.20;58.01
72308;BME280;60257;42.638;23.376;2023-04-22T07:56:51;94409.28;;;12.33;58.06
72308;BME280;60257;42.638;23.376;2023-04-22T07:59:16;94393.28;;;12.39;58.23
72308;BME280;60257;42.638;23.376;2023-04-22T08:01:42;94407.91;;;12.66;58.24
72308;BME280;60257;42.638;23.376;2023-04-22T08:04:07;94394.38;;;12.77;57.64
72308;BME280;60257;42.638;23.376;2023-04-22T08:06:33;94403.69;;;12.95;56.37
72308;BME280;60257;42.638;23.376;2023-04-22T08:08:58;94383.75;;;13.01;55.56
72308;BME280;60257;42.638;23.376;2023-04-22T08:11:24;94396.66;;;13.20;55.24
72308;BME280;60257;42.638;23.376;2023-04-22T08:13:50;94395.50;;;13.21;54.87
72308;BME280;60257;42.638;23.376;2023-04-22T08:16:15;94398.38;;;13.28;54.35
72308;BME280;60257;42.638;23.376;2023-04-22T08:18:41;94389.75;;;13.30;54.18
72308;BME280;60257;42.638;23.376;2023-04-22T08:21:06;94394.44;;;13.29;54.24
72308;BME280;60257;42.638;23.376;2023-04-22T08:23:32;94390.13;;;13.32;54.69
72308;BME280;60257;42.638;23.376;2023-04-22T08:25:57;94385.56;;;13.39;54.44
72308;BME280;60257;42.638;23.376;2023-04-22T08:28:23;94388.97;;;13.59;54.34
72308;BME280;60257;42.638;23.376;2023-04-22T08:30:48;94377.00;;;13.48;54.07
72308;BME280;60257;42.638;23.376;2023-04-22T08:33:15;94379.75;;;13.48;54.46
72308;BME280;60257;42.638;23.376;2023-04-22T08:35:41;94380.44;;;13.68;54.44
72308;BME280;60257;42.638;23.376;2023-04-22T08:38:06;94371.88;;;13.46;53.87
72308;BME280;60257;42.638;23.376;2023-04-22T08:40:33;94377.28;;;13.13;53.62
72308;BME280;60257;42.638;23.376;2023-04-22T08:42:59;94370.50;;;13.33;54.07
72308;BME280;60257;42.638;23.376;2023-04-22T08:45:25;94357.00;;;13.25;53.76
72308;BME280;60257;42.638;23.376;2023-04-22T08:47:51;94363.03;;;13.34;53.70
72308;BME280;60257;42.638;23.376;2023-04-22T08:50:19;94371.16;;;13.23;52.93
72308;BME280;60257;42.638;23.376;2023-04-22T08:52:46;94361.84;;;13.31;53.00
72308;BME280;60257;42.638;23.376;2023-04-22T08:55:11;94352.91;;;13.41;52.56
72308;BME280;60257;42.638;23.376;2023-04-22T08:57:38;94343.66;;;13.57;52.47
72308;BME280;60257;42.638;23.376;2023-04-22T09:00:05;94348.88;;;13.62;51.99
72308;BME280;60257;42.638;23.376;2023-04-22T09:02:33;94343.56;;;13.79;51.58
72308;BME280;60257;42.638;23.376;2023-04-22T09:05:01;94345.59;;;13.82;51.23
72308;BME280;60257;42.638;23.376;2023-04-22T09:07:27;94329.06;;;13.86;51.18
72308;BME280;60257;42.638;23.376;2023-04-22T09:09:55;94343.88;;;14.04;51.03
72308;BME280;60257;42.638;23.376;2023-04-22T09:12:21;94345.09;;;14.07;49.75
72308;BME280;60257;42.638;23.376;2023-04-22T09:14:47;94348.72;;;14.14;49.67
72308;BME280;60257;42.638;23.376;2023-04-22T09:17:16;94328.00;;;13.94;47.68
72308;BME280;60257;42.638;23.376;2023-04-22T09:19:43;94340.09;;;14.19;47.31
72308;BME280;60257;42.638;23.376;2023-04-22T09:22:12;94336.69;;;13.96;47.49
72308;BME280;60257;42.638;23.376;2023-04-22T09:24:48;94329.41;;;14.14;48.22
72308;BME280;60257;42.638;23.376;2023-04-22T09:27:18;94331.28;;;14.40;48.19
72308;BME280;60257;42.638;23.376;2023-04-22T09:29:48;94330.78;;;14.72;47.76
72308;BME280;60257;42.638;23.376;2023-04-22T09:32:15;94327.31;;;14.78;46.20
72308;BME280;60257;42.638;23.376;2023-04-22T09:34:53;94310.34;;;14.80;46.71
72308;BME280;60257;42.638;23.376;2023-04-22T09:37:20;94315.22;;;14.93;46.31
72308;BME280;60257;42.638;23.376;2023-04-22T09:39:48;94316.84;;;15.01;45.71
72308;BME280;60257;42.638;23.376;2023-04-22T09:42:18;94315.97;;;14.90;44.83
72308;BME280;60257;42.638;23.376;2023-04-22T09:44:48;94320.84;;;15.11;45.10
72308;BME280;60257;42.638;23.376;2023-04-22T09:47:17;94303.75;;;14.91;43.18
72308;BME280;60257;42.638;23.376;2023-04-22T09:49:47;94309.78;;;15.11;42.95
72308;BME280;60257;42.638;23.376;2023-04-22T09:52:23;94313.16;;;15.45;43.13
72308;BME280;60257;42.638;23.376;2023-04-22T09:54:51;94311.00;;;15.75;44.08
72308;BME280;60257;42.638;23.376;2023-04-22T09:57:17;94301.19;;;15.92;41.21
72308;BME280;60257;42.638;23.376;2023-04-22T09:59:43;94311.88;;;16.04;39.63
72308;BME280;60257;42.638;23.376;2023-04-22T10:02:08;94318.50;;;15.82;38.04
72308;BME280;60257;42.638;23.376;2023-04-22T10:04:34;94312.25;;;15.92;38.89
72308;BME280;60257;42.638;23.376;2023-04-22T10:06:59;94324.47;;;15.91;41.81
72308;BME280;60257;42.638;23.376;2023-04-22T10:09:27;94329.59;;;15.86;42.38
72308;BME280;60257;42.638;23.376;2023-04-22T10:11:54;94336.06;;;15.46;41.15
72308;BME280;60257;42.638;23.376;2023-04-22T10:14:23;94310.00;;;14.85;41.45
72308;BME280;60257;42.638;23.376;2023-04-22T10:16:51;94325.19;;;14.61;41.90
72308;BME280;60257;42.638;23.376;2023-04-22T10:19:23;94319.16;;;14.96;41.21
72308;BME280;60257;42.638;23.376;2023-04-22T10:21:57;94314.94;;;15.13;40.97
72308;BME280;60257;42.638;23.376;2023-04-22T10:24:28;94317.88;;;14.83;40.98
72308;BME280;60257;42.638;23.376;2023-04-22T10:26:59;94319.91;;;14.89;40.72
72308;BME280;60257;42.638;23.376;2023-04-22T10:29:38;94316.44;;;14.99;39.72
72308;BME280;60257;42.638;23.376;2023-04-22T10:32:22;94307.34;;;14.99;38.47
72308;BME280;60257;42.638;23.376;2023-04-22T10:35:06;94310.34;;;14.80;39.18
72308;BME280;60257;42.638;23.376;2023-04-22T10:37:33;94312.81;;;14.92;39.59
72308;BME280;60257;42.638;23.376;2023-04-22T10:40:10;94302.91;;;14.84;40.35
72308;BME280;60257;42.638;23.376;2023-04-22T10:42:42;94312.66;;;14.74;41.73
72308;BME280;60257;42.638;23.376;2023-04-22T10:45:14;94313.09;;;14.80;41.95
72308;BME280;60257;42.638;23.376;2023-04-22T10:47:40;94314.69;;;14.77;41.22
72308;BME280;60257;42.638;23.376;2023-04-22T10:50:24;94300.81;;;14.70;41.41
72308;BME280;60257;42.638;23.376;2023-04-22T10:55:17;94300.84;;;14.74;40.94
72308;BME280;60257;42.638;23.376;2023-04-22T10:57:45;94301.69;;;14.81;41.78
72308;BME280;60257;42.638;23.376;2023-04-22T11:00:30;94302.22;;;14.97;41.93
72308;BME280;60257;42.638;23.376;2023-04-22T11:05:26;94298.03;;;15.21;41.27
72308;BME280;60257;42.638;23.376;2023-04-22T11:08:00;94298.97;;;15.47;40.82
72308;BME280;60257;42.638;23.376;2023-04-22T11:10:32;94302.59;;;15.54;38.51
72308;BME280;60257;42.638;23.376;2023-04-22T11:13:00;94305.72;;;15.53;38.53
72308;BME280;60257;42.638;23.376;2023-04-22T11:15:28;94290.75;;;15.54;38.69
72308;BME280;60257;42.638;23.376;2023-04-22T11:17:54;94297.47;;;15.60;37.81
72308;BME280;60257;42.638;23.376;2023-04-22T11:20:20;94299.34;;;15.49;36.85
72308;BME280;60257;42.638;23.376;2023-04-22T11:22:50;94294.09;;;15.26;38.69
72308;BME280;60257;42.638;23.376;2023-04-22T11:25:16;94314.38;;;14.89;39.43
72308;BME280;60257;42.638;23.376;2023-04-22T11:27:42;94305.59;;;14.77;40.12
72308;BME280;60257;42.638;23.376;2023-04-22T11:30:16;94306.25;;;14.59;41.27
72308;BME280;60257;42.638;23.376;2023-04-22T11:32:43;94318.94;;;14.71;41.86
72308;BME280;60257;42.638;23.376;2023-04-22T11:35:16;94313.41;;;14.68;41.27
72308;BME280;60257;42.638;23.376;2023-04-22T11:37:48;94319.69;;;14.64;42.31
72308;BME280;60257;42.638;23.376;2023-04-22T11:40:19;94316.66;;;14.77;43.22
72308;BME280;60257;42.638;23.376;2023-04-22T11:42:46;94329.75;;;14.90;42.17
72308;BME280;60257;42.638;23.376;2023-04-22T11:45:12;94332.84;;;14.82;43.33
72308;BME280;60257;42.638;23.376;2023-04-22T11:47:38;94321.63;;;14.60;43.84
72308;BME280;60257;42.638;23.376;2023-04-22T11:50:07;94331.25;;;14.77;43.73
72308;BME280;60257;42.638;23.376;2023-04-22T11:52:47;94335.34;;;14.94;43.08
72308;BME280;60257;42.638;23.376;2023-04-22T11:57:45;94348.19;;;14.76;43.32
72308;BME280;60257;42.638;23.376;2023-04-22T12:00:15;94348.94;;;14.73;42.85
72308;BME280;60257;42.638;23.376;2023-04-22T12:02:42;94348.13;;;14.69;43.05
72308;BME280;60257;42.638;23.376;2023-04-22T12:05:10;94337.88;;;14.73;42.72
72308;BME280;60257;42.638;23.376;2023-04-22T12:07:36;94350.03;;;14.64;43.63
72308;BME280;60257;42.638;23.376;2023-04-22T12:10:04;94342.63;;;14.72;43.51
72308;BME280;60257;42.638;23.376;2023-04-22T12:12:32;94345.41;;;14.76;43.47
72308;BME280;60257;42.638;23.376;2023-04-22T12:15:07;94354.94;;;14.82;43.40
72308;BME280;60257;42.638;23.376;2023-04-22T12:17:33;94336.72;;;14.70;45.05
72308;BME280;60257;42.638;23.376;2023-04-22T12:19:59;94356.09;;;14.81;44.88
72308;BME280;60257;42.638;23.376;2023-04-22T12:22:26;94352.53;;;14.77;44.42
72308;BME280;60257;42.638;23.376;2023-04-22T12:24:51;94351.34;;;14.78;45.08
72308;BME280;60257;42.638;23.376;2023-04-22T12:27:17;94319.59;;;14.54;45.43
72308;BME280;60257;42.638;23.376;2023-04-22T12:29:53;94348.13;;;14.72;45.03
72308;BME280;60257;42.638;23.376;2023-04-22T12:32:20;94350.19;;;14.82;44.10
72308;BME280;60257;42.638;23.376;2023-04-22T12:34:46;94349.41;;;14.78;43.47
72308;BME280;60257;42.638;23.376;2023-04-22T12:37:12;94353.03;;;14.89;43.13
72308;BME280;60257;42.638;23.376;2023-04-22T12:39:38;94339.47;;;14.74;44.14
72308;BME280;60257;42.638;23.376;2023-04-22T12:42:04;94358.22;;;14.54;44.30
72308;BME280;60257;42.638;23.376;2023-04-22T12:44:31;94347.03;;;14.80;44.50
72308;BME280;60257;42.638;23.376;2023-04-22T12:46:56;94347.94;;;14.95;45.10
72308;BME280;60257;42.638;23.376;2023-04-22T12:49:22;94345.06;;;14.81;45.25
72308;BME280;60257;42.638;23.376;2023-04-22T12:51:47;94344.13;;;14.62;44.96
72308;BME280;60257;42.638;23.376;2023-04-22T12:54:13;94351.69;;;14.36;46.68
72308;BME280;60257;42.638;23.376;2023-04-22T12:56:38;94353.03;;;14.45;46.92
72308;BME280;60257;42.638;23.376;2023-04-22T12:59:04;94352.66;;;14.47;47.22